createdAt,value
2019-05-29T00:01:18.558Z,81.54
2019-05-29T00:03:45.530Z,81.75
2019-05-29T00:06:16.807Z,81.74
2019-05-29T00:08:46.607Z,81.41
2019-05-29T00:11:16.350Z,81.25
2019-05-29T00:13:46.239Z,81.27
2019-05-29T00:16:15.952Z,81.23
2019-05-29T00:18:45.719Z,81.30
2019-05-29T00:21:15.366Z,81.31
2019-05-29T00:23:45.038Z,81.51
2019-05-29T00:26:14.668Z,81.66
2019-05-29T00:28:44.437Z,81.72
2019-05-29T00:31:14.091Z,81.96
2019-05-29T00:33:44.783Z,82.11
2019-05-29T00:36:14.667Z,82.16
2019-05-29T00:38:44.435Z,82.25
2019-05-29T00:41:15.079Z,82.44
2019-05-29T00:43:45.595Z,82.68
2019-05-29T00:46:15.608Z,82.63
2019-05-29T00:48:45.263Z,82.70
2019-05-29T00:51:15.193Z,82.59
2019-05-29T00:53:45.011Z,82.54
2019-05-29T00:56:14.740Z,82.46
2019-05-29T00:58:44.595Z,82.45
2019-05-29T01:01:15.465Z,82.46
2019-05-29T01:03:45.331Z,82.52
2019-05-29T01:06:15.999Z,82.59
2019-05-29T01:08:45.925Z,82.72
2019-05-29T01:11:16.811Z,82.81
2019-05-29T01:13:46.641Z,82.87
2019-05-29T01:16:17.481Z,82.78
2019-05-29T01:18:47.511Z,82.98
2019-05-29T01:21:17.988Z,83.15
2019-05-29T01:23:49.692Z,83.30
2019-05-29T01:26:19.363Z,83.38
2019-05-29T01:28:49.384Z,83.51
2019-05-29T01:31:19.358Z,83.49
2019-05-29T01:33:49.027Z,83.72
2019-05-29T01:36:20.018Z,83.92
2019-05-29T01:38:49.879Z,83.95
2019-05-29T01:41:19.480Z,83.95
2019-05-29T01:43:49.179Z,83.75
2019-05-29T01:46:19.760Z,83.71
2019-05-29T01:48:49.409Z,83.66
2019-05-29T01:51:19.545Z,83.75
2019-05-29T01:53:49.215Z,83.83
2019-05-29T01:56:21.707Z,83.75
2019-05-29T01:58:50.341Z,83.63
2019-05-29T02:01:20.070Z,83.39
2019-05-29T02:03:50.036Z,83.19
2019-05-29T02:06:20.036Z,82.97
2019-05-29T02:08:49.856Z,82.72
2019-05-29T02:11:19.701Z,82.52
2019-05-29T02:13:49.369Z,82.44
2019-05-29T02:16:20.584Z,82.30
2019-05-29T02:18:50.425Z,82.27
2019-05-29T02:21:20.226Z,82.09
2019-05-29T02:23:50.044Z,82.24
2019-05-29T02:26:20.575Z,82.17
2019-05-29T02:28:50.363Z,82.14
2019-05-29T02:31:21.950Z,82.10
2019-05-29T02:33:51.551Z,81.67
2019-05-29T02:36:22.353Z,81.12
2019-05-29T02:38:52.117Z,80.99
2019-05-29T02:41:24.106Z,80.94
2019-05-29T02:43:53.479Z,80.99
2019-05-29T02:46:23.935Z,81.10
2019-05-29T02:48:54.516Z,81.18
2019-05-29T02:51:24.829Z,81.19
2019-05-29T02:53:55.934Z,81.15
2019-05-29T02:56:27.029Z,81.29
2019-05-29T02:58:57.061Z,81.48
2019-05-29T03:01:27.792Z,81.30
2019-05-29T03:03:58.619Z,81.31
2019-05-29T03:06:30.149Z,81.07
2019-05-29T03:09:00.717Z,80.84
2019-05-29T03:11:31.204Z,81.03
2019-05-29T03:14:03.873Z,81.23
2019-05-29T03:16:34.857Z,81.49
2019-05-29T03:19:05.441Z,81.83
2019-05-29T03:21:36.108Z,82.03
2019-05-29T03:24:06.622Z,82.03
2019-05-29T03:26:38.407Z,82.09
2019-05-29T03:29:09.007Z,82.24
2019-05-29T03:31:46.495Z,82.24
2019-05-29T03:34:12.527Z,82.58
2019-05-29T03:36:47.852Z,82.66
2019-05-29T03:39:15.657Z,82.89
2019-05-29T03:41:46.365Z,82.82
2019-05-29T03:44:17.219Z,82.69
2019-05-29T03:46:47.946Z,82.61
2019-05-29T03:49:18.554Z,82.46
2019-05-29T03:51:49.092Z,82.28
2019-05-29T03:54:21.275Z,82.13
2019-05-29T03:56:51.450Z,81.88
2019-05-29T03:59:21.969Z,81.81
2019-05-29T04:01:52.562Z,81.39
2019-05-29T04:04:22.930Z,81.18
2019-05-29T04:06:53.503Z,81.07
2019-05-29T04:09:24.272Z,80.68
2019-05-29T04:11:54.779Z,80.77
2019-05-29T04:14:27.595Z,80.42
2019-05-29T04:17:01.027Z,79.99
2019-05-29T04:19:32.635Z,79.69
2019-05-29T04:22:13.602Z,79.11
2019-05-29T04:24:45.703Z,78.89
2019-05-29T04:27:21.351Z,78.68
2019-05-29T04:29:53.430Z,77.96
2019-05-29T04:32:23.633Z,77.84
2019-05-29T04:34:54.448Z,77.54
2019-05-29T04:37:25.044Z,77.32
2019-05-29T04:39:55.584Z,77.06
2019-05-29T04:42:26.187Z,77.18
2019-05-29T04:44:56.733Z,76.82
2019-05-29T04:47:28.801Z,77.16
2019-05-29T04:49:59.585Z,77.02
2019-05-29T04:52:31.359Z,77.17
2019-05-29T04:55:01.971Z,77.14
2019-05-29T04:57:32.833Z,76.91
2019-05-29T05:00:03.505Z,76.67
2019-05-29T05:02:35.062Z,76.50
2019-05-29T05:05:07.373Z,76.35
2019-05-29T05:07:38.046Z,75.98
2019-05-29T05:10:09.495Z,76.85
2019-05-29T05:12:40.658Z,77.32
2019-05-29T05:15:11.366Z,76.78
2019-05-29T05:17:41.683Z,75.95
2019-05-29T05:20:12.174Z,75.22
2019-05-29T05:22:42.840Z,75.55
2019-05-29T05:25:13.424Z,75.34
2019-05-29T05:27:43.921Z,75.22
2019-05-29T05:30:14.494Z,76.04
2019-05-29T05:32:48.167Z,76.00
2019-05-29T05:35:19.075Z,76.06
2019-05-29T05:37:49.511Z,75.90
2019-05-29T05:40:20.186Z,75.80
2019-05-29T05:42:50.695Z,75.74
2019-05-29T05:45:21.331Z,75.37
2019-05-29T05:47:57.420Z,75.46
2019-05-29T05:50:24.616Z,75.00
2019-05-29T05:52:55.055Z,74.79
2019-05-29T05:55:25.450Z,75.68
2019-05-29T05:57:55.911Z,75.45
2019-05-29T06:00:35.803Z,74.04
2019-05-29T06:03:07.155Z,73.52
2019-05-29T06:05:38.284Z,73.55
2019-05-29T06:08:08.992Z,72.42
2019-05-29T06:10:40.247Z,72.05
2019-05-29T06:13:11.170Z,71.38
2019-05-29T06:15:42.955Z,71.78
2019-05-29T06:18:21.154Z,70.85
2019-05-29T06:20:45.934Z,70.70
2019-05-29T06:23:16.453Z,70.95
2019-05-29T06:25:47.014Z,70.90
2019-05-29T06:28:17.717Z,70.85
2019-05-29T06:30:48.178Z,70.67
2019-05-29T06:33:18.807Z,70.15
2019-05-29T06:35:49.361Z,70.02
2019-05-29T06:38:20.301Z,69.32
2019-05-29T06:40:50.684Z,69.53
2019-05-29T06:43:25.868Z,68.98
2019-05-29T06:45:57.564Z,68.40
2019-05-29T06:48:46.244Z,68.06
2019-05-29T06:51:05.393Z,68.07
2019-05-29T06:53:35.800Z,67.88
2019-05-29T06:56:06.399Z,66.47
2019-05-29T06:58:38.084Z,65.64
2019-05-29T07:01:08.978Z,64.46
2019-05-29T07:03:41.757Z,65.79
2019-05-29T07:06:12.354Z,66.17
2019-05-29T07:08:46.457Z,64.37
2019-05-29T07:11:16.476Z,63.69
2019-05-29T07:13:50.121Z,63.84
2019-05-29T07:16:19.656Z,63.48
2019-05-29T07:19:23.985Z,63.33
2019-05-29T07:21:22.164Z,63.90
2019-05-29T07:23:52.927Z,62.99
2019-05-29T07:26:23.361Z,62.89
2019-05-29T07:29:06.579Z,63.35
2019-05-29T07:31:26.202Z,63.76
2019-05-29T07:33:56.824Z,63.68
2019-05-29T07:36:27.316Z,62.72
2019-05-29T07:39:03.710Z,62.57
2019-05-29T07:41:30.060Z,63.27
2019-05-29T07:44:00.641Z,62.56
2019-05-29T07:46:30.841Z,61.81
2019-05-29T07:49:00.927Z,62.16
2019-05-29T07:51:31.259Z,61.51
2019-05-29T07:54:01.578Z,59.55
2019-05-29T07:56:32.038Z,60.07
2019-05-29T07:59:03.634Z,60.29
2019-05-29T08:01:34.082Z,60.14
2019-05-29T08:04:04.275Z,59.75
2019-05-29T08:06:34.596Z,59.28
2019-05-29T08:09:06.222Z,59.42
2019-05-29T08:11:36.264Z,58.74
2019-05-29T08:14:06.500Z,58.88
2019-05-29T08:16:36.807Z,57.36
2019-05-29T08:19:08.098Z,57.29
2019-05-29T08:21:38.488Z,57.17
2019-05-29T08:24:08.815Z,57.08
2019-05-29T08:26:40.653Z,55.09
2019-05-29T08:29:11.133Z,54.60
2019-05-29T08:31:42.662Z,53.49
2019-05-29T08:34:13.067Z,53.58
2019-05-29T08:36:59.986Z,53.82
2019-05-29T08:39:33.456Z,55.50
2019-05-29T08:42:20.639Z,53.83
2019-05-29T08:44:20.360Z,53.13
2019-05-29T08:47:06.341Z,51.64
2019-05-29T08:49:22.497Z,51.51
2019-05-29T08:52:10.202Z,52.17
2019-05-29T08:54:24.603Z,48.29
2019-05-29T08:56:55.037Z,49.70
2019-05-29T08:59:25.265Z,47.36
2019-05-29T09:01:55.702Z,48.68
2019-05-29T09:04:26.181Z,49.49
2019-05-29T09:06:56.489Z,46.68
2019-05-29T09:09:26.845Z,43.72
2019-05-29T09:11:57.226Z,38.91
2019-05-29T09:14:27.454Z,37.61
2019-05-29T09:16:58.039Z,39.23
2019-05-29T09:19:28.232Z,37.80
2019-05-29T09:21:58.835Z,38.81
2019-05-29T09:24:29.099Z,41.41
2019-05-29T09:26:59.648Z,43.64
2019-05-29T09:29:29.873Z,45.21
2019-05-29T09:32:00.231Z,45.09
2019-05-29T09:34:30.649Z,46.73
2019-05-29T09:37:00.889Z,45.57
2019-05-29T09:39:30.980Z,44.21
2019-05-29T09:42:01.255Z,45.32
2019-05-29T09:44:38.809Z,47.43
2019-05-29T09:47:03.605Z,48.61
2019-05-29T09:49:34.026Z,49.43
2019-05-29T09:52:04.319Z,51.19
2019-05-29T09:54:34.890Z,50.30
2019-05-29T09:57:05.410Z,49.30
2019-05-29T09:59:35.611Z,49.11
2019-05-29T10:02:08.956Z,49.76
2019-05-29T10:04:37.627Z,49.73
2019-05-29T10:07:08.092Z,48.46
2019-05-29T10:09:38.369Z,48.56
2019-05-29T10:12:08.847Z,48.89
2019-05-29T10:14:38.864Z,48.00
2019-05-29T10:17:12.736Z,48.59
2019-05-29T10:19:40.976Z,48.53
2019-05-29T10:22:11.117Z,47.24
2019-05-29T10:24:41.571Z,46.58
2019-05-29T10:27:11.785Z,46.56
2019-05-29T10:29:42.474Z,45.67
2019-05-29T10:32:12.847Z,45.19
2019-05-29T10:34:44.234Z,43.82
2019-05-29T10:37:17.945Z,44.42
2019-05-29T10:39:47.195Z,44.89
2019-05-29T10:42:20.535Z,45.67
2019-05-29T10:44:51.154Z,42.70
2019-05-29T10:47:21.592Z,43.13
2019-05-29T10:49:51.853Z,44.11
2019-05-29T10:52:22.040Z,43.87
2019-05-29T10:54:52.521Z,43.81
2019-05-29T10:57:22.688Z,39.69
2019-05-29T10:59:53.005Z,36.72
2019-05-29T11:02:23.134Z,35.66
2019-05-29T11:04:56.457Z,33.44
2019-05-29T11:07:25.290Z,33.54
2019-05-29T11:09:56.225Z,31.87
2019-05-29T11:12:26.800Z,34.17
2019-05-29T11:14:57.067Z,32.61
2019-05-29T11:17:27.504Z,34.45
2019-05-29T11:19:58.321Z,35.65
2019-05-29T11:22:28.716Z,35.85
2019-05-29T11:25:18.834Z,36.61
2019-05-29T11:27:30.684Z,37.50
2019-05-29T11:30:00.922Z,38.26
2019-05-29T11:32:31.214Z,38.00
2019-05-29T11:35:02.247Z,38.61
2019-05-29T11:37:32.661Z,39.52
2019-05-29T11:40:03.335Z,38.19
2019-05-29T11:42:33.645Z,40.38
2019-05-29T11:45:05.400Z,39.99
2019-05-29T11:47:35.719Z,37.79
2019-05-29T11:50:19.673Z,36.66
2019-05-29T11:52:45.897Z,38.41
2019-05-29T11:55:16.626Z,38.07
2019-05-29T11:57:47.033Z,39.80
2019-05-29T12:00:20.729Z,38.72
2019-05-29T12:02:51.278Z,36.50
2019-05-29T12:05:22.064Z,36.69
2019-05-29T12:07:53.495Z,35.74
2019-05-29T12:10:24.128Z,33.22
2019-05-29T12:12:55.429Z,30.79
2019-05-29T12:15:25.840Z,27.52
2019-05-29T12:18:18.490Z,26.61
2019-05-29T12:20:29.113Z,25.66
2019-05-29T12:23:18.605Z,25.03
2019-05-29T12:25:31.450Z,24.61
2019-05-29T12:28:03.238Z,24.08
2019-05-29T12:30:34.248Z,24.50
2019-05-29T12:33:04.756Z,25.37
2019-05-29T12:35:35.105Z,29.57
2019-05-29T12:38:05.609Z,31.56
2019-05-29T12:40:35.971Z,34.53
2019-05-29T12:43:06.800Z,36.07
2019-05-29T12:45:37.234Z,36.96
2019-05-29T12:48:13.288Z,37.93
2019-05-29T12:50:39.474Z,38.24
2019-05-29T12:53:09.797Z,38.83
2019-05-29T12:55:40.609Z,38.79
2019-05-29T12:58:10.982Z,36.61
2019-05-29T13:00:41.580Z,36.94
2019-05-29T13:03:11.743Z,36.81
2019-05-29T13:05:43.751Z,34.50
2019-05-29T13:08:14.225Z,30.15
2019-05-29T13:10:44.698Z,28.57
2019-05-29T13:13:15.288Z,30.09
2019-05-29T13:15:46.077Z,31.00
2019-05-29T13:18:16.586Z,26.18
2019-05-29T13:20:47.093Z,26.91
2019-05-29T13:23:17.445Z,29.12
2019-05-29T13:25:47.962Z,30.63
2019-05-29T13:28:18.069Z,32.36
2019-05-29T13:30:48.492Z,34.61
2019-05-29T13:33:18.604Z,36.50
2019-05-29T13:35:48.644Z,38.41
2019-05-29T13:38:19.042Z,39.15
2019-05-29T13:40:49.307Z,40.28
2019-05-29T13:43:19.868Z,40.41
2019-05-29T13:45:50.545Z,40.98
2019-05-29T13:48:23.386Z,41.90
2019-05-29T13:50:52.871Z,40.96
2019-05-29T13:53:23.511Z,39.93
2019-05-29T13:55:53.819Z,36.45
2019-05-29T13:58:24.017Z,32.14
2019-05-29T14:00:55.412Z,28.21
2019-05-29T14:03:25.749Z,27.36
2019-05-29T14:05:56.031Z,26.51
2019-05-29T14:08:26.134Z,25.72
2019-05-29T14:10:56.485Z,25.77
2019-05-29T14:13:26.971Z,24.35
2019-05-29T14:15:57.428Z,24.12
2019-05-29T14:18:27.974Z,23.82
2019-05-29T14:20:58.381Z,22.65
2019-05-29T14:23:28.929Z,22.29
2019-05-29T14:26:00.411Z,23.73
2019-05-29T14:28:30.776Z,25.96
2019-05-29T14:31:01.980Z,25.61
2019-05-29T14:33:32.474Z,28.03
2019-05-29T14:36:03.429Z,30.04
2019-05-29T14:38:34.363Z,31.20
2019-05-29T14:41:05.700Z,32.90
2019-05-29T14:43:36.660Z,32.00
2019-05-29T14:46:08.117Z,31.20
2019-05-29T14:48:38.852Z,27.76
2019-05-29T14:51:08.994Z,25.91
2019-05-29T14:53:39.162Z,24.16
2019-05-29T14:56:10.592Z,24.49
2019-05-29T14:58:41.243Z,25.46
2019-05-29T15:01:11.566Z,24.17
2019-05-29T15:03:41.734Z,24.09
2019-05-29T15:06:11.797Z,25.98
2019-05-29T15:08:42.497Z,28.70
2019-05-29T15:11:14.097Z,30.17
2019-05-29T15:13:45.122Z,29.72
2019-05-29T15:16:15.547Z,31.09
2019-05-29T15:18:46.195Z,31.62
2019-05-29T15:21:16.939Z,32.87
2019-05-29T15:23:47.143Z,33.57
2019-05-29T15:26:17.227Z,34.12
2019-05-29T15:28:47.762Z,34.13
2019-05-29T15:31:18.525Z,35.06
2019-05-29T15:33:49.000Z,34.80
2019-05-29T15:36:19.504Z,36.66
2019-05-29T15:38:49.763Z,37.98
2019-05-29T15:41:20.190Z,36.97
2019-05-29T15:43:50.765Z,36.89
2019-05-29T15:46:21.035Z,36.71
2019-05-29T15:48:51.989Z,36.40
2019-05-29T15:51:22.714Z,36.54
2019-05-29T15:53:53.336Z,36.86
2019-05-29T15:56:27.897Z,35.34
2019-05-29T15:58:56.167Z,33.90
2019-05-29T16:01:26.523Z,34.58
2019-05-29T16:03:57.450Z,36.13
2019-05-29T16:06:27.893Z,36.25
2019-05-29T16:08:58.511Z,37.71
2019-05-29T16:11:28.933Z,36.69
2019-05-29T16:13:59.695Z,38.26
2019-05-29T16:16:30.242Z,36.70
2019-05-29T16:19:00.664Z,36.20
2019-05-29T16:21:30.975Z,36.10
2019-05-29T16:24:01.269Z,34.44
2019-05-29T16:26:31.919Z,35.85
2019-05-29T16:29:04.106Z,34.94
2019-05-29T16:31:34.665Z,34.18
2019-05-29T16:34:04.995Z,35.21
2019-05-29T16:36:35.609Z,34.95
2019-05-29T16:39:08.855Z,35.40
2019-05-29T16:41:39.811Z,35.93
2019-05-29T16:44:11.921Z,36.28
2019-05-29T16:46:42.395Z,36.71
2019-05-29T16:49:12.756Z,37.19
2019-05-29T16:51:42.975Z,35.87
2019-05-29T16:54:13.263Z,35.00
2019-05-29T16:56:44.196Z,34.42
2019-05-29T16:59:14.910Z,34.55
2019-05-29T17:01:45.199Z,34.29
2019-05-29T17:04:15.929Z,35.45
2019-05-29T17:06:46.689Z,35.67
2019-05-29T17:09:18.276Z,36.04
2019-05-29T17:11:48.691Z,37.08
2019-05-29T17:14:19.154Z,37.38
2019-05-29T17:16:49.791Z,37.47
2019-05-29T17:19:20.735Z,36.43
2019-05-29T17:21:52.692Z,37.24
2019-05-29T17:24:23.428Z,35.66
2019-05-29T17:26:55.009Z,35.12
2019-05-29T17:29:25.856Z,36.21
2019-05-29T17:31:56.571Z,36.97
2019-05-29T17:34:27.248Z,36.71
2019-05-29T17:36:59.568Z,37.96
2019-05-29T17:39:50.389Z,36.83
2019-05-29T17:42:22.448Z,37.45
2019-05-29T17:44:52.672Z,38.32
2019-05-29T17:47:23.641Z,38.66
2019-05-29T17:49:53.937Z,38.66
2019-05-29T17:52:24.041Z,39.03
2019-05-29T17:54:54.671Z,39.46
2019-05-29T17:57:25.979Z,40.39
2019-05-29T17:59:56.716Z,40.29
2019-05-29T18:02:27.187Z,39.92
2019-05-29T18:04:57.923Z,40.83
2019-05-29T18:07:28.140Z,41.29
2019-05-29T18:09:59.215Z,41.48
2019-05-29T18:12:30.023Z,42.49
2019-05-29T18:15:00.724Z,42.84
2019-05-29T18:17:31.217Z,43.11
2019-05-29T18:20:01.745Z,43.56
2019-05-29T18:22:32.194Z,43.69
2019-05-29T18:25:02.769Z,43.84
2019-05-29T18:27:33.437Z,44.26
2019-05-29T18:30:04.035Z,44.48
2019-05-29T18:32:34.267Z,44.62
2019-05-29T18:35:06.318Z,45.10
2019-05-29T18:37:37.236Z,45.47
2019-05-29T18:40:12.497Z,45.96
2019-05-29T18:42:42.110Z,46.13
2019-05-29T18:45:20.761Z,46.91
2019-05-29T18:47:47.141Z,47.29
2019-05-29T18:50:21.370Z,47.53
2019-05-29T18:52:51.947Z,47.90
2019-05-29T18:55:22.794Z,48.74
2019-05-29T18:57:53.183Z,48.00
2019-05-29T19:00:25.340Z,48.84
2019-05-29T19:02:55.972Z,49.34
2019-05-29T19:05:26.147Z,49.73
2019-05-29T19:07:56.656Z,50.23
2019-05-29T19:10:27.715Z,50.63
2019-05-29T19:12:58.310Z,51.25
2019-05-29T19:15:30.074Z,51.69
2019-05-29T19:18:00.622Z,52.62
2019-05-29T19:20:32.539Z,52.76
2019-05-29T19:23:02.871Z,53.16
2019-05-29T19:25:33.369Z,53.64
2019-05-29T19:28:04.242Z,53.43
2019-05-29T19:30:34.852Z,53.70
2019-05-29T19:33:05.073Z,53.96
2019-05-29T19:35:35.428Z,54.09
2019-05-29T19:38:05.870Z,54.45
2019-05-29T19:40:36.130Z,54.66
2019-05-29T19:43:06.264Z,54.36
2019-05-29T19:45:36.400Z,54.39
2019-05-29T19:48:06.999Z,54.06
2019-05-29T19:50:37.251Z,53.94
2019-05-29T19:53:07.245Z,53.86
2019-05-29T19:55:38.382Z,54.07
2019-05-29T19:58:08.792Z,54.29
2019-05-29T20:00:39.403Z,53.94
2019-05-29T20:03:09.337Z,53.90
2019-05-29T20:05:38.976Z,54.03
2019-05-29T20:08:09.133Z,53.97
2019-05-29T20:10:38.997Z,54.15
2019-05-29T20:13:08.733Z,53.80
2019-05-29T20:15:38.735Z,53.70
2019-05-29T20:18:08.443Z,53.71
2019-05-29T20:20:38.747Z,53.75
2019-05-29T20:23:08.580Z,53.89
2019-05-29T20:25:39.054Z,54.36
2019-05-29T20:28:08.933Z,54.61
2019-05-29T20:30:38.823Z,55.19
2019-05-29T20:33:08.632Z,55.53
2019-05-29T20:35:39.146Z,56.42
2019-05-29T20:38:09.106Z,58.61
2019-05-29T20:40:39.452Z,60.53
2019-05-29T20:43:09.357Z,59.61
2019-05-29T20:45:39.727Z,61.44
2019-05-29T20:48:09.793Z,61.82
2019-05-29T20:50:39.661Z,62.29
2019-05-29T20:53:09.666Z,61.35
2019-05-29T20:55:39.865Z,61.66
2019-05-29T20:58:23.517Z,60.58
2019-05-29T21:00:42.337Z,61.22
2019-05-29T21:03:12.326Z,60.07
2019-05-29T21:05:42.875Z,59.60
2019-05-29T21:08:12.948Z,59.54
2019-05-29T21:10:43.599Z,61.27
2019-05-29T21:13:13.837Z,61.31
2019-05-29T21:15:43.837Z,62.84
2019-05-29T21:18:13.598Z,63.95
2019-05-29T21:20:44.621Z,64.98
2019-05-29T21:23:14.806Z,66.00
2019-05-29T21:25:44.954Z,66.54
2019-05-29T21:28:14.758Z,67.20
2019-05-29T21:30:45.591Z,67.71
2019-05-29T21:33:15.626Z,68.38
2019-05-29T21:35:46.362Z,68.83
2019-05-29T21:38:16.361Z,69.42
2019-05-29T21:40:46.723Z,69.66
2019-05-29T21:43:16.759Z,70.29
2019-05-29T21:45:47.275Z,70.43
2019-05-29T21:48:17.148Z,70.66
2019-05-29T21:50:47.445Z,71.00
2019-05-29T21:53:17.259Z,71.10
2019-05-29T21:55:47.831Z,71.19
2019-05-29T21:58:17.829Z,71.72
2019-05-29T22:00:50.458Z,71.71
2019-05-29T22:03:20.581Z,71.86
2019-05-29T22:05:50.869Z,72.17
2019-05-29T22:08:20.679Z,72.64
2019-05-29T22:10:51.434Z,72.65
2019-05-29T22:13:21.375Z,72.44
2019-05-29T22:15:51.032Z,72.91
2019-05-29T22:18:21.004Z,73.56
2019-05-29T22:20:51.138Z,73.60
2019-05-29T22:23:21.373Z,73.78
2019-05-29T22:25:51.339Z,74.24
2019-05-29T22:28:21.320Z,74.02
2019-05-29T22:30:51.362Z,73.75
2019-05-29T22:33:21.387Z,73.87
2019-05-29T22:35:52.675Z,73.66
2019-05-29T22:38:22.830Z,73.83
2019-05-29T22:40:53.788Z,73.85
2019-05-29T22:43:23.889Z,73.98
2019-05-29T22:45:53.821Z,74.02
2019-05-29T22:48:23.587Z,74.17
2019-05-29T22:50:53.923Z,74.34
2019-05-29T22:53:23.932Z,73.52
2019-05-29T22:55:53.869Z,73.21
2019-05-29T22:58:23.518Z,72.34
2019-05-29T23:00:53.950Z,70.82
2019-05-29T23:03:23.895Z,70.44
2019-05-29T23:05:54.276Z,70.68
2019-05-29T23:08:24.338Z,69.91
2019-05-29T23:10:54.558Z,71.34
2019-05-29T23:13:24.583Z,71.93
2019-05-29T23:15:54.562Z,72.28
2019-05-29T23:18:24.579Z,72.94
2019-05-29T23:20:54.549Z,73.30
2019-05-29T23:23:24.569Z,72.79
2019-05-29T23:25:54.564Z,71.31
2019-05-29T23:28:24.665Z,71.90
2019-05-29T23:30:54.653Z,70.35
2019-05-29T23:33:24.630Z,70.31
2019-05-29T23:35:54.841Z,70.73
2019-05-29T23:38:24.666Z,71.60
2019-05-29T23:40:55.252Z,72.23
2019-05-29T23:43:25.417Z,72.82
2019-05-29T23:45:55.383Z,73.40
2019-05-29T23:48:25.360Z,73.79
2019-05-29T23:50:55.584Z,74.70
2019-05-29T23:53:25.452Z,75.00
2019-05-29T23:55:55.752Z,75.41
2019-05-29T23:58:25.595Z,75.73
